createdAt,value
2019-04-29T00:01:51.592Z,98.44
2019-04-29T00:04:19.931Z,98.18
2019-04-29T00:06:48.356Z,98.19
2019-04-29T00:09:16.688Z,98.00
2019-04-29T00:11:45.044Z,97.60
2019-04-29T00:14:13.501Z,96.72
2019-04-29T00:19:41.712Z,96.94
2019-04-29T00:22:10.106Z,97.43
2019-04-29T00:24:38.439Z,97.92
2019-04-29T00:27:06.783Z,97.91
2019-04-29T00:29:35.111Z,98.01
2019-04-29T00:32:03.455Z,97.67
2019-04-29T00:34:31.885Z,97.81
2019-04-29T00:37:15.876Z,97.54
2019-04-29T00:39:46.168Z,97.24
2019-04-29T00:42:14.496Z,96.53
2019-04-29T00:47:17.095Z,95.12
2019-04-29T00:49:45.484Z,95.11
2019-04-29T00:52:13.808Z,95.13
2019-04-29T00:54:42.588Z,94.54
2019-04-29T00:57:11.700Z,94.95
2019-04-29T00:59:40.075Z,95.02
2019-04-29T01:02:08.404Z,95.16
2019-04-29T01:04:36.796Z,95.32
2019-04-29T01:07:05.136Z,95.52
2019-04-29T01:09:33.478Z,95.75
2019-04-29T01:12:01.837Z,95.79
2019-04-29T01:14:30.268Z,95.33
2019-04-29T01:16:58.668Z,94.87
2019-04-29T01:19:27.087Z,94.45
2019-04-29T01:21:55.516Z,93.77
2019-04-29T01:24:23.901Z,93.67
2019-04-29T01:27:03.900Z,93.51
2019-04-29T01:29:32.250Z,92.84
2019-04-29T01:32:00.617Z,92.81
2019-04-29T01:34:28.951Z,93.83
2019-04-29T01:36:57.401Z,94.03
2019-04-29T01:39:25.731Z,94.18
2019-04-29T01:44:33.257Z,93.99
2019-04-29T01:47:01.592Z,93.57
2019-04-29T01:49:29.943Z,93.23
2019-04-29T01:51:58.350Z,93.41
2019-04-29T01:54:26.730Z,93.77
2019-04-29T01:56:55.102Z,94.02
2019-04-29T01:59:23.426Z,93.96
2019-04-29T02:01:51.873Z,93.98
2019-04-29T02:04:20.229Z,93.98
2019-04-29T02:06:48.741Z,95.07
2019-04-29T02:09:17.082Z,95.47
2019-04-29T02:11:45.481Z,95.49
2019-04-29T02:14:13.821Z,94.87
2019-04-29T02:19:16.336Z,94.03
2019-04-29T02:21:45.706Z,94.04
2019-04-29T02:24:14.490Z,94.45
2019-04-29T02:26:42.844Z,93.33
2019-04-29T02:29:11.177Z,93.96
2019-04-29T02:31:39.533Z,94.58
2019-04-29T02:34:07.892Z,95.00
2019-04-29T02:36:36.202Z,94.60
2019-04-29T02:39:22.089Z,94.81
2019-04-29T02:41:52.811Z,95.07
2019-04-29T02:44:21.141Z,95.20
2019-04-29T02:46:49.487Z,94.56
2019-04-29T02:49:17.881Z,94.50
2019-04-29T02:51:46.218Z,95.05
2019-04-29T02:54:14.555Z,95.14
2019-04-29T02:56:42.922Z,94.99
2019-04-29T03:02:11.514Z,92.48
2019-04-29T03:04:45.424Z,92.12
2019-04-29T03:07:13.805Z,93.14
2019-04-29T03:09:44.674Z,93.63
2019-04-29T03:12:13.020Z,93.23
2019-04-29T03:14:41.428Z,92.43
2019-04-29T03:17:11.752Z,92.60
2019-04-29T03:19:45.663Z,92.99
2019-04-29T03:22:13.980Z,93.69
2019-04-29T03:24:42.312Z,94.29
2019-04-29T03:27:10.697Z,94.32
2019-04-29T03:29:39.083Z,94.85
2019-04-29T03:32:07.422Z,95.40
2019-04-29T03:34:35.768Z,96.04
2019-04-29T03:37:04.095Z,96.07
2019-04-29T03:42:09.715Z,95.71
2019-04-29T03:44:38.083Z,95.40
2019-04-29T03:47:06.672Z,95.90
2019-04-29T03:49:35.048Z,96.22
2019-04-29T03:52:03.385Z,96.54
2019-04-29T03:54:33.657Z,96.60
2019-04-29T03:57:02.052Z,96.71
2019-04-29T03:59:30.653Z,96.80
2019-04-29T04:02:04.001Z,96.54
2019-04-29T04:04:37.862Z,97.49
2019-04-29T04:09:40.612Z,98.04
2019-04-29T04:12:09.014Z,98.45
2019-04-29T04:14:37.350Z,98.18
2019-04-29T04:17:07.451Z,98.58
2019-04-29T04:19:35.824Z,98.55
2019-04-29T04:22:04.149Z,97.85
2019-04-29T04:24:32.581Z,97.83
2019-04-29T04:27:00.960Z,98.58
2019-04-29T04:29:29.362Z,98.84
2019-04-29T04:31:57.747Z,99.34
2019-04-29T04:34:26.138Z,99.76
2019-04-29T04:36:54.469Z,99.94
2019-04-29T04:42:00.489Z,99.50
2019-04-29T04:47:23.251Z,99.68
2019-04-29T04:49:51.623Z,99.49
2019-04-29T04:52:19.957Z,99.47
2019-04-29T04:54:49.122Z,98.97
2019-04-29T04:59:51.700Z,95.14
2019-04-29T05:02:20.021Z,94.89
2019-04-29T05:04:48.366Z,94.68
2019-04-29T05:07:16.761Z,93.89
2019-04-29T05:09:45.342Z,93.81
2019-04-29T05:12:14.243Z,93.50
2019-04-29T05:14:42.008Z,93.34
2019-04-29T05:17:10.367Z,93.56
2019-04-29T05:19:38.708Z,93.62
2019-04-29T05:22:07.066Z,91.95
2019-04-29T05:24:35.436Z,91.87
2019-04-29T05:27:03.780Z,90.71
2019-04-29T05:29:32.164Z,90.84
2019-04-29T05:34:34.844Z,90.68
2019-04-29T05:37:06.551Z,90.04
2019-04-29T05:39:35.236Z,90.87
2019-04-29T05:42:07.704Z,90.86
2019-04-29T05:44:34.583Z,90.05
2019-04-29T05:50:02.792Z,89.77
2019-04-29T05:55:05.322Z,89.22
2019-04-29T05:57:34.655Z,86.68
2019-04-29T06:00:03.002Z,87.51
2019-04-29T06:02:33.232Z,87.33
2019-04-29T06:04:59.709Z,87.37
2019-04-29T06:07:28.103Z,87.08
2019-04-29T06:09:56.437Z,86.51
2019-04-29T06:12:24.758Z,86.56
2019-04-29T06:14:53.149Z,87.35
2019-04-29T06:17:22.548Z,87.83
2019-04-29T06:19:50.881Z,86.16
2019-04-29T06:22:19.208Z,85.13
2019-04-29T06:24:47.607Z,82.99
2019-04-29T06:27:15.982Z,82.88
2019-04-29T06:29:44.308Z,82.97
2019-04-29T06:32:13.598Z,82.89
2019-04-29T06:34:41.948Z,81.79
2019-04-29T06:37:10.338Z,82.69
2019-04-29T06:39:38.666Z,84.63
2019-04-29T06:42:07.205Z,83.21
2019-04-29T06:44:35.588Z,82.74
2019-04-29T06:47:03.925Z,83.46
2019-04-29T06:49:32.352Z,84.36
2019-04-29T06:52:01.656Z,83.71
2019-04-29T06:54:30.048Z,82.43
2019-04-29T06:56:58.476Z,81.05
2019-04-29T06:59:26.921Z,80.85
2019-04-29T07:01:55.250Z,83.50
2019-04-29T07:04:23.577Z,82.29
2019-04-29T07:06:57.651Z,82.56
2019-04-29T07:09:20.353Z,84.19
2019-04-29T07:11:48.839Z,84.54
2019-04-29T07:14:17.157Z,85.21
2019-04-29T07:16:45.604Z,84.08
2019-04-29T07:19:13.979Z,83.81
2019-04-29T07:21:47.099Z,84.49
2019-04-29T07:26:45.001Z,85.67
2019-04-29T07:29:13.344Z,84.89
2019-04-29T07:31:41.743Z,85.08
2019-04-29T07:34:10.108Z,84.23
2019-04-29T07:36:38.447Z,83.89
2019-04-29T07:39:06.898Z,82.62
2019-04-29T07:41:35.274Z,78.40
2019-04-29T07:44:03.612Z,74.60
2019-04-29T07:46:55.176Z,73.97
2019-04-29T07:49:05.714Z,73.16
2019-04-29T07:51:34.893Z,71.64
2019-04-29T07:56:37.781Z,72.83
2019-04-29T07:59:04.344Z,73.87
2019-04-29T08:01:31.311Z,72.79
2019-04-29T08:03:59.644Z,72.69
2019-04-29T08:06:28.005Z,73.61
2019-04-29T08:09:02.901Z,73.61
2019-04-29T08:13:59.105Z,70.16
2019-04-29T08:16:27.477Z,71.02
2019-04-29T08:18:55.846Z,74.00
2019-04-29T08:21:24.190Z,75.79
2019-04-29T08:23:52.537Z,76.97
2019-04-29T08:26:20.878Z,74.32
2019-04-29T08:28:53.059Z,72.80
2019-04-29T08:31:21.067Z,69.38
2019-04-29T08:33:46.813Z,73.62
2019-04-29T08:36:15.379Z,71.54
2019-04-29T08:38:43.775Z,70.68
2019-04-29T08:41:12.148Z,69.51
2019-04-29T08:43:52.441Z,70.28
2019-04-29T08:46:25.153Z,69.50
2019-04-29T08:48:53.497Z,69.44
2019-04-29T08:51:21.849Z,71.61
2019-04-29T08:53:50.181Z,73.89
2019-04-29T08:56:18.521Z,72.75
2019-04-29T08:58:49.301Z,72.53
2019-04-29T09:01:15.230Z,71.88
2019-04-29T09:06:17.867Z,73.72
2019-04-29T09:08:54.758Z,73.68
2019-04-29T09:11:14.635Z,75.07
2019-04-29T09:16:17.141Z,75.75
2019-04-29T09:21:19.732Z,69.97
2019-04-29T09:23:48.087Z,67.51
2019-04-29T09:29:15.386Z,67.49
2019-04-29T09:36:52.160Z,66.32
2019-04-29T09:39:21.373Z,66.40
2019-04-29T09:41:54.560Z,64.15
2019-04-29T09:47:04.147Z,65.31
2019-04-29T09:52:06.766Z,70.32
2019-04-29T09:54:35.143Z,74.36
2019-04-29T09:57:03.525Z,78.12
2019-04-29T10:02:10.152Z,86.75
2019-04-29T10:04:40.549Z,87.44
2019-04-29T10:07:09.202Z,86.90
2019-04-29T10:12:11.828Z,86.29
2019-04-29T10:14:40.172Z,88.14
2019-04-29T10:19:55.624Z,86.44
2019-04-29T10:24:58.156Z,85.78
2019-04-29T10:27:26.500Z,85.02
2019-04-29T10:32:29.114Z,84.87
2019-04-29T10:34:57.465Z,82.54
2019-04-29T10:37:31.383Z,81.49
2019-04-29T10:40:10.550Z,81.68
2019-04-29T10:42:46.035Z,82.38
2019-04-29T10:50:24.712Z,82.63
2019-04-29T10:52:53.134Z,82.78
2019-04-29T10:55:25.543Z,85.46
2019-04-29T11:03:02.237Z,80.23
2019-04-29T11:05:30.579Z,78.40
2019-04-29T11:10:33.123Z,78.57
2019-04-29T11:13:01.564Z,74.74
2019-04-29T11:15:32.775Z,78.36
2019-04-29T11:18:03.466Z,76.16
2019-04-29T11:23:18.425Z,74.58
2019-04-29T11:25:52.349Z,72.75
2019-04-29T11:33:30.370Z,70.11
2019-04-29T11:38:54.001Z,67.83
2019-04-29T11:43:56.692Z,69.49
2019-04-29T11:46:26.040Z,68.11
2019-04-29T11:48:54.406Z,69.10
2019-04-29T11:51:23.649Z,68.74
2019-04-29T11:53:52.065Z,68.55
2019-04-29T11:56:20.427Z,68.94
2019-04-29T12:01:38.716Z,66.21
2019-04-29T12:04:05.364Z,66.97
2019-04-29T12:11:43.554Z,72.82
2019-04-29T12:14:11.888Z,75.51
2019-04-29T12:16:43.512Z,73.96
2019-04-29T12:21:46.111Z,71.46
2019-04-29T12:24:14.492Z,72.08
2019-04-29T12:26:44.456Z,72.01
2019-04-29T12:29:13.747Z,70.90
2019-04-29T12:31:40.576Z,70.60
2019-04-29T12:36:56.002Z,69.67
2019-04-29T12:44:34.942Z,69.29
2019-04-29T12:46:54.492Z,67.67
2019-04-29T12:49:22.842Z,68.38
2019-04-29T12:51:51.197Z,65.50
2019-04-29T12:54:19.577Z,66.10
2019-04-29T12:56:49.538Z,66.72
2019-04-29T12:59:16.521Z,66.30
2019-04-29T13:01:57.988Z,62.81
2019-04-29T13:04:28.010Z,64.84
2019-04-29T13:09:36.762Z,66.33
2019-04-29T13:12:18.003Z,65.38
2019-04-29T13:14:34.830Z,63.92
2019-04-29T13:17:14.488Z,66.52
2019-04-29T13:22:10.473Z,70.10
2019-04-29T13:24:42.550Z,69.00
2019-04-29T13:29:42.171Z,67.00
2019-04-29T13:32:10.533Z,67.24
2019-04-29T13:34:38.876Z,69.22
2019-04-29T13:37:12.314Z,67.69
2019-04-29T13:39:39.977Z,64.14
2019-04-29T13:42:09.146Z,64.42
2019-04-29T13:49:49.166Z,67.05
2019-04-29T13:54:47.232Z,70.98
2019-04-29T13:57:16.312Z,71.46
2019-04-29T14:04:56.069Z,72.58
2019-04-29T14:07:23.118Z,71.68
2019-04-29T14:09:51.699Z,70.07
2019-04-29T14:14:48.464Z,67.88
2019-04-29T14:17:25.823Z,63.37
2019-04-29T14:22:22.353Z,64.81
2019-04-29T14:24:48.744Z,65.34
2019-04-29T14:27:24.603Z,62.74
2019-04-29T14:29:45.448Z,63.04
2019-04-29T14:32:18.149Z,63.51
2019-04-29T14:34:58.875Z,64.12
2019-04-29T14:40:02.908Z,64.02
2019-04-29T14:42:31.942Z,65.13
2019-04-29T14:45:00.023Z,64.32
2019-04-29T14:50:05.718Z,65.60
2019-04-29T14:55:14.868Z,69.18
2019-04-29T14:57:40.783Z,68.14
2019-04-29T15:00:09.117Z,68.46
2019-04-29T15:05:14.040Z,71.60
2019-04-29T15:07:41.207Z,73.00
2019-04-29T15:10:09.493Z,71.33
2019-04-29T15:12:56.746Z,73.05
2019-04-29T15:17:57.980Z,72.69
2019-04-29T15:20:36.309Z,74.58
2019-04-29T15:23:04.659Z,73.60
2019-04-29T15:25:33.025Z,74.83
2019-04-29T15:28:01.388Z,74.25
2019-04-29T15:30:31.730Z,73.58
2019-04-29T15:32:59.676Z,72.52
2019-04-29T15:38:00.700Z,73.74
2019-04-29T15:40:29.216Z,76.10
2019-04-29T15:42:57.656Z,75.64
2019-04-29T15:45:28.005Z,76.98
2019-04-29T15:47:54.159Z,76.83
2019-04-29T15:50:22.473Z,77.30
2019-04-29T15:55:28.161Z,80.50
2019-04-29T15:57:56.526Z,80.67
2019-04-29T16:00:25.969Z,83.31
2019-04-29T16:02:53.615Z,83.07
2019-04-29T16:08:21.257Z,85.12
2019-04-29T16:10:51.659Z,87.11
2019-04-29T16:13:22.672Z,88.42
2019-04-29T16:15:47.513Z,88.87
2019-04-29T16:20:53.949Z,89.93
2019-04-29T16:23:18.463Z,92.17
2019-04-29T16:25:52.187Z,93.02
2019-04-29T16:28:16.066Z,90.93
2019-04-29T16:30:44.444Z,92.97
2019-04-29T16:33:14.106Z,92.80
2019-04-29T16:38:16.449Z,93.73
2019-04-29T16:40:51.503Z,93.06
2019-04-29T16:45:55.721Z,96.78
2019-04-29T16:48:24.054Z,97.64
2019-04-29T16:50:52.462Z,97.64
2019-04-29T16:53:21.887Z,98.71
2019-04-29T16:58:24.539Z,99.27
2019-04-29T17:00:54.843Z,100.00
2019-04-29T17:03:21.264Z,100.00
2019-04-29T17:05:49.766Z,100.00
2019-04-29T17:08:18.093Z,100.00
2019-04-29T17:10:53.739Z,100.00
2019-04-29T17:13:23.709Z,100.00
2019-04-29T17:15:52.311Z,100.00
2019-04-29T17:18:18.776Z,100.00
2019-04-29T17:20:47.146Z,100.00
2019-04-29T17:23:23.628Z,100.00
2019-04-29T17:25:43.891Z,100.00
2019-04-29T17:28:29.265Z,100.00
2019-04-29T17:33:57.342Z,100.00
2019-04-29T17:36:25.864Z,100.00
2019-04-29T17:41:28.124Z,100.00
2019-04-29T17:44:08.233Z,100.00
2019-04-29T17:51:55.731Z,100.00
2019-04-29T17:54:37.829Z,100.00
2019-04-29T18:00:08.885Z,100.00
2019-04-29T18:02:37.338Z,100.00
2019-04-29T18:05:08.178Z,100.00
2019-04-29T18:10:43.575Z,100.00
2019-04-29T18:13:12.324Z,100.00
2019-04-29T18:15:51.642Z,100.00
2019-04-29T18:18:09.871Z,100.00
2019-04-29T18:20:36.085Z,100.00
2019-04-29T18:23:11.209Z,100.00
2019-04-29T18:25:39.380Z,100.00
2019-04-29T18:28:07.276Z,100.00
2019-04-29T18:30:36.399Z,100.00
2019-04-29T18:33:03.075Z,100.00
2019-04-29T18:35:31.044Z,100.00
2019-04-29T18:37:58.931Z,100.00
2019-04-29T18:40:26.867Z,100.00
2019-04-29T18:42:55.384Z,100.00
2019-04-29T18:45:25.365Z,100.00
2019-04-29T18:47:50.662Z,100.00
2019-04-29T18:50:18.622Z,100.00
2019-04-29T18:52:46.527Z,100.00
2019-04-29T18:55:14.471Z,100.00
2019-04-29T18:57:42.431Z,100.00
2019-04-29T19:00:12.744Z,100.00
2019-04-29T19:02:45.243Z,100.00
2019-04-29T19:05:06.896Z,100.00
2019-04-29T19:07:37.174Z,100.00
2019-04-29T19:10:08.997Z,100.00
2019-04-29T19:12:31.712Z,100.00
2019-04-29T19:15:04.409Z,100.00
2019-04-29T19:17:30.876Z,100.00
2019-04-29T19:19:55.564Z,100.00
2019-04-29T19:22:23.508Z,100.00
2019-04-29T19:24:51.439Z,100.00
2019-04-29T19:27:19.459Z,100.00
2019-04-29T19:29:47.443Z,100.00
2019-04-29T19:32:18.779Z,100.00
2019-04-29T19:34:45.873Z,100.00
2019-04-29T19:37:12.808Z,100.00
2019-04-29T19:39:40.767Z,100.00
2019-04-29T19:42:08.735Z,100.00
2019-04-29T19:44:36.934Z,100.00
2019-04-29T19:47:04.683Z,100.00
2019-04-29T19:49:32.651Z,100.00
2019-04-29T19:52:00.539Z,100.00
2019-04-29T19:54:28.711Z,100.00
2019-04-29T19:57:03.242Z,100.00
2019-04-29T19:59:26.126Z,100.00
2019-04-29T20:02:01.796Z,100.00
2019-04-29T20:04:26.852Z,100.00
2019-04-29T20:06:59.907Z,100.00
2019-04-29T20:09:24.071Z,100.00
2019-04-29T20:11:50.906Z,100.00
2019-04-29T20:14:26.558Z,100.00
2019-04-29T20:19:50.752Z,100.00
2019-04-29T20:22:15.938Z,100.00
2019-04-29T20:24:42.552Z,100.00
2019-04-29T20:27:10.360Z,100.00
2019-04-29T20:29:38.760Z,100.00
2019-04-29T20:32:07.891Z,100.00
2019-04-29T20:34:35.986Z,100.00
2019-04-29T20:37:02.186Z,100.00
2019-04-29T20:39:30.138Z,100.00
2019-04-29T20:42:00.968Z,100.00
2019-04-29T20:44:26.038Z,100.00
2019-04-29T20:47:14.052Z,100.00
2019-04-29T20:49:22.378Z,100.00
2019-04-29T20:51:52.495Z,100.00
2019-04-29T20:54:19.563Z,100.00
2019-04-29T20:56:47.360Z,100.00
2019-04-29T20:59:15.564Z,100.00
2019-04-29T21:01:44.760Z,100.00
2019-04-29T21:04:12.173Z,100.00
2019-04-29T21:06:56.519Z,100.00
2019-04-29T21:09:07.981Z,100.00
2019-04-29T21:14:34.073Z,100.00
2019-04-29T21:17:02.241Z,100.00
2019-04-29T21:19:28.528Z,100.00
2019-04-29T21:21:56.483Z,100.00
2019-04-29T21:24:25.490Z,100.00
2019-04-29T21:26:55.025Z,100.00
2019-04-29T21:29:21.827Z,100.00
2019-04-29T21:31:50.777Z,100.00
2019-04-29T21:34:17.699Z,100.00
2019-04-29T21:36:48.501Z,100.00
2019-04-29T21:39:22.436Z,100.00
2019-04-29T21:41:55.535Z,100.00
2019-04-29T21:44:23.759Z,100.00
2019-04-29T21:46:48.606Z,100.00
2019-04-29T21:49:16.583Z,100.00
2019-04-29T21:51:46.547Z,100.00
2019-04-29T21:54:14.312Z,100.00
2019-04-29T21:56:46.211Z,100.00
2019-04-29T21:59:11.954Z,100.00
2019-04-29T22:01:37.509Z,100.00
2019-04-29T22:04:04.211Z,100.00
2019-04-29T22:06:32.129Z,100.00
2019-04-29T22:09:01.253Z,100.00
2019-04-29T22:11:28.032Z,100.00
2019-04-29T22:13:55.939Z,100.00
2019-04-29T22:16:25.089Z,100.00
2019-04-29T22:18:52.997Z,100.00
2019-04-29T22:21:21.953Z,100.00
2019-04-29T22:23:51.069Z,100.00
2019-04-29T22:26:18.321Z,100.00
2019-04-29T22:28:43.598Z,100.00
2019-04-29T22:31:11.528Z,100.00
2019-04-29T22:33:39.470Z,100.00
2019-04-29T22:36:10.106Z,100.00
2019-04-29T22:38:35.998Z,100.00
2019-04-29T22:41:04.978Z,100.00
2019-04-29T22:43:31.162Z,100.00
2019-04-29T22:45:59.087Z,100.00
2019-04-29T22:48:26.999Z,100.00
2019-04-29T22:50:55.656Z,100.00
2019-04-29T22:53:24.778Z,100.00
2019-04-29T22:55:50.888Z,100.00
2019-04-29T22:58:18.761Z,100.00
2019-04-29T23:00:46.712Z,100.00
2019-04-29T23:03:14.632Z,100.00
2019-04-29T23:05:42.652Z,100.00
2019-04-29T23:08:10.713Z,100.00
2019-04-29T23:10:38.668Z,100.00
2019-04-29T23:13:06.635Z,100.00
2019-04-29T23:15:35.727Z,100.00
2019-04-29T23:18:02.536Z,100.00
2019-04-29T23:20:36.044Z,100.00
2019-04-29T23:23:18.827Z,100.00
2019-04-29T23:25:55.675Z,100.00
2019-04-29T23:28:27.011Z,100.00
2019-04-29T23:30:52.215Z,100.00
2019-04-29T23:33:22.979Z,100.00
2019-04-29T23:35:46.796Z,100.00
2019-04-29T23:38:15.459Z,100.00
2019-04-29T23:40:42.623Z,100.00
2019-04-29T23:43:10.618Z,100.00
2019-04-29T23:45:38.581Z,100.00
2019-04-29T23:48:06.570Z,100.00
2019-04-29T23:50:35.920Z,100.00
2019-04-29T23:53:02.433Z,100.00
2019-04-29T23:55:30.336Z,100.00
2019-04-29T23:58:10.979Z,100.00
